Time;durP1;ratioP1;P1;durP2;ratioP2;P2;SDS_P1;SDS_P2;PMS_P1;PMS_P2;Temp;Humidity;BMP_temperature;BMP_pressure;BME280_temperature;BME280_humidity;BME280_pressure;Samples;Min_cycle;Max_cycle;Signal;HPM_P1;HPM_P2
2023/02/09 00:02:16;;;;;;;2.90;1.80;;;;;;;-10.72;72.69;97955.73;106603;1275;25645;-63
2023/02/09 00:04:45;;;;;;;3.20;1.50;;;;;;;-10.68;72.26;97952.19;106609;1275;24235;-62
2023/02/09 00:07:13;;;;;;;3.00;1.50;;;;;;;-10.71;71.96;97951.52;106562;1275;24636;-63
2023/02/09 00:09:41;;;;;;;2.80;1.40;;;;;;;-10.67;72.12;97950.80;106593;1275;24126;-63
2023/02/09 00:14:57;;;;;;;2.70;1.70;;;;;;;-10.66;71.56;97949.70;106610;1259;22944;-63
2023/02/09 00:17:25;;;;;;;2.90;1.40;;;;;;;-10.72;71.51;97953.86;106591;1275;23015;-63
2023/02/09 00:19:54;;;;;;;1.30;0.70;;;;;;;-10.86;71.30;97954.94;106572;1275;25780;-63
2023/02/09 00:22:22;;;;;;;2.50;1.30;;;;;;;-10.99;71.41;97951.48;106641;1275;22606;-63
2023/02/09 00:24:50;;;;;;;3.00;1.40;;;;;;;-11.02;71.98;97953.02;106569;1275;24266;-63
2023/02/09 00:27:18;;;;;;;4.30;1.90;;;;;;;-10.95;72.33;97952.84;106597;1274;24249;-64
2023/02/09 00:29:47;;;;;;;3.20;1.90;;;;;;;-10.94;72.10;97948.27;106628;1275;24414;-63
2023/02/09 00:32:16;;;;;;;2.20;1.30;;;;;;;-11.07;71.81;97945.58;106635;1275;23011;-63
2023/02/09 00:34:45;;;;;;;3.20;1.80;;;;;;;-11.10;72.14;97940.49;106596;1275;22801;-62
2023/02/09 00:37:13;;;;;;;3.30;1.30;;;;;;;-11.07;72.03;97940.45;106606;1275;22783;-63
2023/02/09 00:39:41;;;;;;;1.70;1.30;;;;;;;-11.17;71.97;97939.79;106591;1275;22637;-62
2023/02/09 00:42:10;;;;;;;3.60;1.30;;;;;;;-11.22;72.11;97940.63;106644;1275;22562;-63
2023/02/09 00:44:39;;;;;;;2.30;1.60;;;;;;;-11.24;72.38;97941.58;106685;1275;25552;-63
2023/02/09 00:47:08;;;;;;;3.10;1.30;;;;;;;-11.20;72.60;97935.71;106629;1275;22606;-63
2023/02/09 00:49:38;;;;;;;2.10;1.30;;;;;;;-11.07;73.02;97930.58;106571;1275;25482;-63
2023/02/09 00:52:07;;;;;;;3.10;1.40;;;;;;;-10.92;72.77;97923.61;106608;1275;25614;-62
2023/02/09 00:54:37;;;;;;;3.70;1.60;;;;;;;-10.89;72.47;97921.91;106609;1262;25590;-63
2023/02/09 00:57:05;;;;;;;4.00;1.50;;;;;;;-10.82;72.38;97919.97;106613;1275;22829;-63
2023/02/09 00:59:34;;;;;;;7.20;1.40;;;;;;;-10.79;72.13;97916.52;106644;1275;25446;-63
2023/02/09 01:02:03;;;;;;;2.90;1.30;;;;;;;-10.80;71.83;97911.74;106593;1275;24332;-63
2023/02/09 01:04:32;;;;;;;2.00;0.90;;;;;;;-10.90;71.75;97914.59;106574;1275;25702;-62
2023/02/09 01:07:00;;;;;;;3.10;1.40;;;;;;;-10.99;71.68;97913.03;106603;1275;25718;-62
2023/02/09 01:09:28;;;;;;;3.80;1.40;;;;;;;-11.08;71.99;97910.75;106614;1275;22545;-63
2023/02/09 01:11:57;;;;;;;4.10;1.50;;;;;;;-11.12;72.30;97913.77;106586;1275;25501;-62
2023/02/09 01:14:25;;;;;;;3.50;1.60;;;;;;;-11.04;72.48;97905.69;106600;1275;22637;-62
2023/02/09 01:16:53;;;;;;;1.50;1.00;;;;;;;-10.97;72.40;97903.58;106555;1267;25692;-62
2023/02/09 01:19:21;;;;;;;2.00;1.20;;;;;;;-10.98;71.95;97899.35;106610;1275;22564;-62
2023/02/09 01:21:49;;;;;;;2.60;1.30;;;;;;;-11.01;71.87;97896.52;106616;1274;22576;-62
2023/02/09 01:24:17;;;;;;;2.70;1.20;;;;;;;-11.04;71.63;97895.86;106663;1275;22931;-62
2023/02/09 01:26:47;;;;;;;3.70;2.00;;;;;;;-11.11;71.86;97891.63;106567;1275;22627;-62
2023/02/09 01:29:18;;;;;;;2.50;1.30;;;;;;;-11.06;72.07;97882.90;106562;1275;23151;-62
2023/02/09 01:31:47;;;;;;;0.80;0.50;;;;;;;-11.03;72.00;97878.80;106590;1275;22575;-62
2023/02/09 01:34:18;;;;;;;2.70;1.60;;;;;;;-11.14;71.40;97884.55;106634;1275;24341;-62
2023/02/09 01:36:49;;;;;;;3.50;1.80;;;;;;;-11.30;71.58;97880.91;106655;1275;25332;-62
2023/02/09 01:39:17;;;;;;;2.70;1.20;;;;;;;-11.33;72.22;97875.11;106619;1275;24315;-62
2023/02/09 01:41:46;;;;;;;2.00;1.20;;;;;;;-11.29;72.39;97875.19;106548;1275;24364;-62
2023/02/09 01:44:15;;;;;;;2.50;1.30;;;;;;;-11.28;72.28;97871.56;106614;1275;22646;-62
2023/02/09 01:46:46;;;;;;;4.50;2.10;;;;;;;-11.31;72.19;97866.48;106641;1275;25720;-62
2023/02/09 01:49:15;;;;;;;3.00;1.40;;;;;;;-11.31;72.24;97864.98;106727;1275;25423;-62
2023/02/09 01:52:02;;;;;;;2.50;1.50;;;;;;;-11.29;72.33;97860.02;106620;1272;24279;-62
2023/02/09 01:54:53;;;;;;;3.40;1.60;;;;;;;-11.23;72.61;97861.86;106691;1275;25501;-63
2023/02/09 01:57:27;;;;;;;3.10;1.60;;;;;;;-11.23;72.65;97859.16;106643;1275;22618;-63
2023/02/09 02:00:02;;;;;;;3.30;1.70;;;;;;;-11.23;72.50;97864.12;106632;1275;22572;-63
2023/02/09 02:02:43;;;;;;;3.20;1.90;;;;;;;-11.24;72.30;97861.73;106552;1275;25429;-63
2023/02/09 02:05:12;;;;;;;4.50;1.90;;;;;;;-11.22;72.37;97861.65;106547;1275;24327;-63
2023/02/09 02:07:49;;;;;;;1.50;0.90;;;;;;;-11.28;72.03;97862.94;106660;1275;24101;-62
2023/02/09 02:10:17;;;;;;;3.60;1.80;;;;;;;-11.47;71.99;97856.88;106614;1275;24424;-62
2023/02/09 02:12:45;;;;;;;4.10;1.90;;;;;;;-11.46;72.51;97857.87;106547;1275;26802;-63
2023/02/09 02:15:14;;;;;;;1.80;0.90;;;;;;;-11.41;72.61;97857.98;106587;1275;22611;-63
2023/02/09 02:18:06;;;;;;;3.90;1.60;;;;;;;-11.47;72.21;97855.91;106758;1275;22809;-63
2023/02/09 02:20:56;;;;;;;3.30;1.60;;;;;;;-11.55;72.38;97854.02;106606;1275;25557;-63
2023/02/09 02:24:01;;;;;;;2.40;1.20;;;;;;;-11.57;73.01;97848.71;106714;1275;22541;-63
2023/02/09 02:26:48;;;;;;;3.10;1.60;;;;;;;-11.60;73.30;97846.83;106562;1275;25571;-63
2023/02/09 02:29:25;;;;;;;3.90;1.70;;;;;;;-11.55;73.50;97844.70;106541;1275;22655;-63
2023/02/09 02:32:07;;;;;;;2.90;1.20;;;;;;;-11.49;73.55;97842.90;106617;1275;25408;-63
2023/02/09 02:34:54;;;;;;;2.80;1.70;;;;;;;-11.46;73.92;97843.55;106659;1275;22643;-62
2023/02/09 02:37:31;;;;;;;2.50;1.50;;;;;;;-11.46;73.46;97838.09;106620;1275;22634;-62
2023/02/09 02:40:27;;;;;;;1.90;1.00;;;;;;;-11.47;73.25;97840.13;106621;1275;23070;-62
2023/02/09 02:43:23;;;;;;;1.30;1.00;;;;;;;-11.51;72.96;97839.21;106585;1265;22824;-63
2023/02/09 02:45:59;;;;;;;3.40;1.30;;;;;;;-11.53;73.02;97836.39;106641;1275;22830;-63
2023/02/09 02:48:55;;;;;;;1.50;0.90;;;;;;;-11.59;73.30;97832.73;106630;1275;24116;-63
2023/02/09 02:51:35;;;;;;;2.10;0.90;;;;;;;-11.56;73.87;97827.33;106502;1275;22621;-62
2023/02/09 02:54:12;;;;;;;0.70;0.60;;;;;;;-11.49;73.85;97823.69;106649;1275;22635;-63
2023/02/09 02:56:54;;;;;;;1.40;0.90;;;;;;;-11.40;73.66;97823.14;106591;1275;22669;-63
2023/02/09 02:59:30;;;;;;;2.80;1.00;;;;;;;-11.33;73.70;97821.94;106609;1275;25445;-63
2023/02/09 03:02:07;;;;;;;2.30;1.10;;;;;;;-11.32;73.23;97821.19;106689;1275;25682;-62
2023/02/09 03:04:36;;;;;;;2.40;1.00;;;;;;;-11.26;73.63;97818.08;106639;1275;24203;-62
2023/02/09 03:07:06;;;;;;;1.90;0.80;;;;;;;-11.24;73.06;97816.38;106607;1275;25644;-62
2023/02/09 03:09:35;;;;;;;1.30;0.90;;;;;;;-11.32;72.64;97815.29;106550;1275;24431;-63
2023/02/09 03:12:25;;;;;;;2.40;0.80;;;;;;;-11.29;72.90;97813.23;106588;1275;22837;-62
2023/02/09 03:15:31;;;;;;;1.50;1.00;;;;;;;-11.38;72.77;97811.13;106962;1275;26818;-63
2023/02/09 03:18:18;;;;;;;1.80;0.70;;;;;;;-11.37;72.92;97808.50;106568;1275;25607;-63
2023/02/09 03:20:53;;;;;;;1.70;1.00;;;;;;;-11.27;73.43;97808.61;106607;1275;22659;-63
2023/02/09 03:23:38;;;;;;;1.50;1.20;;;;;;;-11.20;73.13;97805.05;106622;1275;24248;-63
2023/02/09 03:26:13;;;;;;;2.00;0.80;;;;;;;-11.15;72.92;97806.77;106655;1275;22575;-63
2023/02/09 03:28:44;;;;;;;1.50;0.70;;;;;;;-11.11;72.80;97808.19;106584;1275;25477;-63
2023/02/09 03:31:14;;;;;;;1.40;0.80;;;;;;;-11.06;72.67;97799.61;106639;1275;25653;-63
2023/02/09 03:33:43;;;;;;;1.10;0.80;;;;;;;-11.05;72.26;97808.70;106596;1275;22688;-63
2023/02/09 03:36:15;;;;;;;0.90;0.80;;;;;;;-11.12;71.75;97801.77;107006;1275;22644;-63
2023/02/09 03:38:44;;;;;;;1.20;0.80;;;;;;;-11.16;71.86;97806.02;106877;1275;25524;-63
2023/02/09 03:41:12;;;;;;;1.20;0.70;;;;;;;-11.19;71.51;97809.30;106628;1275;22684;-62
2023/02/09 03:46:27;;;;;;;2.50;1.10;;;;;;;-11.19;71.96;97805.86;106947;1275;25626;-63
2023/02/09 03:48:55;;;;;;;1.40;0.90;;;;;;;-11.21;71.41;97802.14;106774;1275;24352;-63
2023/02/09 03:51:24;;;;;;;1.60;1.00;;;;;;;-11.32;71.32;97803.02;106615;1275;22712;-62
2023/02/09 03:53:52;;;;;;;2.40;0.90;;;;;;;-11.45;70.72;97794.96;106594;1275;25510;-63
2023/02/09 03:56:23;;;;;;;1.30;0.90;;;;;;;-11.67;70.95;97797.12;106588;1275;22675;-63
2023/02/09 03:58:52;;;;;;;1.90;0.80;;;;;;;-11.87;71.37;97795.87;106868;1275;26875;-63
2023/02/09 04:01:20;;;;;;;3.00;1.00;;;;;;;-11.89;72.11;97796.12;106613;1275;22671;-63
2023/02/09 04:03:48;;;;;;;1.20;0.80;;;;;;;-11.81;72.35;97798.78;106611;1275;22582;-63
2023/02/09 04:06:16;;;;;;;1.70;0.90;;;;;;;-11.81;71.82;97796.08;106631;1275;22920;-63
2023/02/09 04:08:45;;;;;;;1.40;0.70;;;;;;;-11.83;71.83;97793.97;106635;1275;22582;-63
2023/02/09 04:11:13;;;;;;;2.00;0.70;;;;;;;-11.77;72.18;97794.24;106571;1275;22678;-63
2023/02/09 04:13:41;;;;;;;2.00;0.90;;;;;;;-11.76;71.92;97793.59;106599;1275;22827;-63
2023/02/09 04:16:09;;;;;;;1.10;0.60;;;;;;;-11.80;71.60;97795.16;106613;1275;22676;-63
2023/02/09 04:18:38;;;;;;;2.60;0.50;;;;;;;-11.84;71.55;97797.19;106636;1275;22832;-63
2023/02/09 04:21:06;;;;;;;2.00;0.70;;;;;;;-11.99;71.23;97802.96;106589;1275;22628;-63
2023/02/09 04:23:34;;;;;;;1.20;0.60;;;;;;;-12.03;71.59;97802.21;106582;1275;24246;-63
2023/02/09 04:26:02;;;;;;;1.70;1.00;;;;;;;-12.05;71.52;97800.33;106546;1275;22855;-63
2023/02/09 04:28:31;;;;;;;2.20;1.10;;;;;;;-12.07;71.76;97795.20;106599;1275;25607;-63
2023/02/09 04:30:59;;;;;;;0.90;0.60;;;;;;;-12.02;72.01;97796.50;106828;1275;25499;-63
2023/02/09 04:33:28;;;;;;;2.40;0.60;;;;;;;-12.02;71.51;97795.70;106960;1275;22642;-63
2023/02/09 04:35:57;;;;;;;1.00;0.60;;;;;;;-12.12;71.34;97795.52;106730;1275;24043;-61
2023/02/09 04:38:25;;;;;;;3.50;1.20;;;;;;;-12.19;71.27;97799.71;106667;1275;24380;-62
2023/02/09 04:40:55;;;;;;;2.00;0.80;;;;;;;-12.17;71.72;97799.39;106558;1275;22689;-63
2023/02/09 04:43:23;;;;;;;2.80;1.50;;;;;;;-12.26;71.51;97798.59;106614;1275;24343;-62
2023/02/09 04:45:51;;;;;;;4.00;1.40;;;;;;;-12.25;71.91;97801.34;106634;1275;24410;-61
2023/02/09 04:48:22;;;;;;;0.90;0.70;;;;;;;-12.23;71.98;97797.65;106600;1275;22817;-62
2023/02/09 04:50:51;;;;;;;0.90;0.70;;;;;;;-12.22;71.81;97801.61;106747;1275;22772;-61
2023/02/09 04:53:20;;;;;;;3.30;1.20;;;;;;;-12.26;71.36;97805.77;106603;1275;22562;-62
2023/02/09 04:55:51;;;;;;;2.80;1.50;;;;;;;-12.30;71.68;97800.58;106590;1275;24261;-63
2023/02/09 05:01:10;;;;;;;1.40;0.90;;;;;;;-12.17;72.02;97803.64;106774;1275;22633;-62
2023/02/09 05:03:38;;;;;;;3.40;1.60;;;;;;;-12.10;72.04;97800.63;106937;1275;26878;-62
2023/02/09 05:06:06;;;;;;;5.70;1.90;;;;;;;-12.09;71.66;97802.44;106595;1275;26888;-62
2023/02/09 05:08:35;;;;;;;2.00;1.00;;;;;;;-12.06;71.61;97794.96;106157;1275;628930;-62
2023/02/09 05:11:03;;;;;;;3.90;1.50;;;;;;;-12.03;71.53;97801.90;106607;1275;24305;-62
2023/02/09 05:13:31;;;;;;;5.80;2.40;;;;;;;-12.13;70.99;97797.23;106607;1275;22921;-62
2023/02/09 05:16:03;;;;;;;4.90;1.80;;;;;;;-12.25;70.42;97803.15;106547;1275;22661;-62
2023/02/09 05:18:31;;;;;;;8.20;2.40;;;;;;;-12.38;70.53;97804.38;106587;1275;25401;-62
2023/02/09 05:21:00;;;;;;;3.30;1.50;;;;;;;-12.41;71.11;97806.45;106688;1275;24230;-62
2023/02/09 05:23:28;;;;;;;1.40;0.90;;;;;;;-12.39;71.16;97805.81;106639;1275;24347;-62
2023/02/09 05:25:56;;;;;;;10.80;3.60;;;;;;;-12.34;71.25;97807.02;106587;1275;25464;-62
2023/02/09 05:28:25;;;;;;;4.40;1.40;;;;;;;-12.47;70.59;97807.96;106615;1275;22825;-62
2023/02/09 05:30:53;;;;;;;3.80;1.40;;;;;;;-12.64;71.18;97804.86;106619;1275;24922;-62
2023/02/09 05:33:23;;;;;;;11.20;3.20;;;;;;;-12.62;71.61;97802.20;106868;1275;22692;-62
2023/02/09 05:35:54;;;;;;;13.30;3.90;;;;;;;-12.62;71.65;97804.44;106626;1275;22650;-62
2023/02/09 05:38:22;;;;;;;4.70;1.50;;;;;;;-12.56;71.78;97803.65;106631;1275;22671;-62
2023/02/09 05:40:51;;;;;;;5.90;1.80;;;;;;;-12.51;71.86;97802.02;106623;1272;25473;-62
2023/02/09 05:43:19;;;;;;;1.90;0.70;;;;;;;-12.46;71.66;97803.29;106637;1275;22845;-62
2023/02/09 05:45:47;;;;;;;8.80;2.10;;;;;;;-12.60;70.72;97803.06;106572;1260;22759;-62
2023/02/09 05:48:15;;;;;;;2.30;0.90;;;;;;;-12.70;70.87;97807.98;106637;1275;22713;-62
2023/02/09 05:50:43;;;;;;;1.30;0.40;;;;;;;-12.89;70.62;97810.35;106704;1275;25586;-62
2023/02/09 05:53:16;;;;;;;1.60;0.70;;;;;;;-13.04;71.12;97808.42;106991;1275;22910;-62
2023/02/09 05:55:46;;;;;;;2.00;0.90;;;;;;;-13.10;71.72;97810.02;106933;1275;22802;-62
2023/02/09 05:58:14;;;;;;;0.70;0.60;;;;;;;-13.04;72.23;97808.97;106659;1275;22827;-62
2023/02/09 06:00:42;;;;;;;2.00;1.00;;;;;;;-13.03;71.90;97805.70;106584;1275;25401;-63
2023/02/09 06:03:11;;;;;;;2.90;1.80;;;;;;;-12.99;72.10;97805.56;106727;1275;22808;-64
2023/02/09 06:05:43;;;;;;;1.60;0.70;;;;;;;-12.85;72.38;97803.17;106565;1275;22765;-64
2023/02/09 06:08:11;;;;;;;1.40;0.80;;;;;;;-12.83;72.15;97805.60;106493;1275;22924;-61
2023/02/09 06:10:39;;;;;;;1.70;0.90;;;;;;;-12.72;72.43;97808.29;106566;1275;25687;-64
2023/02/09 06:13:07;;;;;;;1.80;0.90;;;;;;;-12.62;72.21;97809.48;106560;1275;26195;-66
2023/02/09 06:15:35;;;;;;;1.80;0.90;;;;;;;-12.48;72.40;97809.75;106667;1275;22727;-66
2023/02/09 06:18:03;;;;;;;0.90;0.70;;;;;;;-12.40;72.06;97805.67;106600;1275;22762;-67
2023/02/09 06:20:31;;;;;;;0.90;0.70;;;;;;;-12.34;71.63;97804.58;106586;1275;25589;-67
2023/02/09 06:23:00;;;;;;;0.90;0.60;;;;;;;-12.40;70.77;97809.02;106806;1275;24301;-68
2023/02/09 06:25:28;;;;;;;3.50;0.70;;;;;;;-12.47;70.93;97807.30;106516;1275;22828;-66
2023/02/09 06:27:56;;;;;;;8.60;3.20;;;;;;;-12.46;71.28;97806.59;106598;1275;22727;-66
2023/02/09 06:30:24;;;;;;;0.80;0.50;;;;;;;-12.53;71.53;97804.70;106416;1264;22815;-62
2023/02/09 06:32:53;;;;;;;6.50;2.70;;;;;;;-12.54;71.43;97803.55;106830;1275;25617;-64
2023/02/09 06:35:22;;;;;;;1.40;0.80;;;;;;;-12.52;71.62;97807.77;107026;1268;22670;-64
2023/02/09 06:37:50;;;;;;;1.60;1.00;;;;;;;-12.49;71.79;97807.98;106769;1275;22546;-65
2023/02/09 06:40:19;;;;;;;1.20;0.80;;;;;;;-12.38;71.99;97807.92;106519;1275;26853;-66
2023/02/09 06:42:49;;;;;;;0.80;0.60;;;;;;;-12.35;71.70;97807.92;106594;1275;22782;-69
2023/02/09 06:45:18;;;;;;;1.80;0.80;;;;;;;-12.32;71.56;97806.87;106556;1275;25475;-67
2023/02/09 06:47:46;;;;;;;8.50;3.10;;;;;;;-12.26;71.73;97807.63;106601;1275;22682;-64
2023/02/09 06:50:16;;;;;;;2.90;1.70;;;;;;;-12.06;72.46;97810.71;106625;1275;23224;-64
2023/02/09 06:52:45;;;;;;;3.30;1.90;;;;;;;-11.76;72.43;97805.05;106475;1275;24117;-67
2023/02/09 06:55:13;;;;;;;7.50;3.90;;;;;;;-11.60;71.70;97800.43;106548;1275;22792;-64
2023/02/09 06:57:42;;;;;;;9.70;4.30;;;;;;;-11.32;72.23;97798.46;106727;1275;22646;-66
2023/02/09 07:00:11;;;;;;;7.50;3.80;;;;;;;-11.06;71.24;97794.94;106638;1275;24261;-64
2023/02/09 07:02:42;;;;;;;8.90;3.70;;;;;;;-10.82;70.66;97795.04;106930;1275;24231;-67
2023/02/09 07:05:12;;;;;;;4.70;2.20;;;;;;;-10.70;69.85;97795.58;106615;1275;24275;-64
2023/02/09 07:07:41;;;;;;;8.30;4.40;;;;;;;-10.63;69.48;97796.52;106672;1275;22726;-63
2023/02/09 07:10:12;;;;;;;7.10;2.40;;;;;;;-10.47;69.97;97796.95;106965;1275;24082;-62
2023/02/09 07:12:42;;;;;;;5.60;1.40;;;;;;;-10.37;68.69;97791.95;106540;1275;22749;-64
2023/02/09 07:15:12;;;;;;;9.40;3.70;;;;;;;-10.51;68.74;97792.31;106534;1265;22551;-70
2023/02/09 07:17:41;;;;;;;8.10;4.10;;;;;;;-10.46;69.70;97797.35;107034;1275;22823;-65
2023/02/09 07:20:10;;;;;;;17.20;8.90;;;;;;;-10.26;69.67;97793.27;106578;1275;22587;-66
2023/02/09 07:22:38;;;;;;;8.40;4.10;;;;;;;-10.07;69.93;97791.05;106711;1275;24396;-66
2023/02/09 07:25:06;;;;;;;8.40;4.50;;;;;;;-9.86;68.89;97795.21;106585;1275;22539;-62
2023/02/09 07:27:35;;;;;;;8.20;4.30;;;;;;;-9.72;68.71;97792.39;106460;1275;25760;-64
2023/02/09 07:30:03;;;;;;;12.60;5.20;;;;;;;-9.59;68.55;97788.55;106486;1275;22613;-67
2023/02/09 07:32:32;;;;;;;34.60;15.50;;;;;;;-9.37;68.18;97787.48;106491;1275;22731;-65
2023/02/09 07:35:01;;;;;;;24.30;11.80;;;;;;;-9.04;68.06;97780.81;106590;1275;22816;-63
2023/02/09 07:37:29;;;;;;;22.10;10.40;;;;;;;-8.85;67.38;97783.93;106536;1275;22615;-67
2023/02/09 07:39:57;;;;;;;15.50;6.70;;;;;;;-8.74;67.41;97787.13;106869;1275;23839;-70
2023/02/09 07:42:26;;;;;;;11.70;5.50;;;;;;;-8.64;66.82;97790.08;106674;1253;24121;-65
2023/02/09 07:45:00;;;;;;;20.90;9.10;;;;;;;-8.75;66.35;97788.61;107000;1275;25610;-67
2023/02/09 07:47:28;;;;;;;20.50;10.40;;;;;;;-8.73;66.90;97786.21;106852;1275;25573;-64
2023/02/09 07:49:56;;;;;;;13.90;8.70;;;;;;;-8.54;66.62;97783.46;106896;1274;23284;-64
2023/02/09 07:52:24;;;;;;;18.20;9.50;;;;;;;-8.41;66.58;97780.86;106541;1275;25555;-63
2023/02/09 07:54:53;;;;;;;14.70;8.90;;;;;;;-8.32;66.31;97777.19;106496;1275;22662;-63
2023/02/09 07:57:21;;;;;;;18.40;8.80;;;;;;;-8.10;65.94;97779.42;106470;1275;25509;-65
2023/02/09 07:59:49;;;;;;;24.40;13.30;;;;;;;-7.99;65.93;97782.98;106868;1275;22647;-65
2023/02/09 08:02:34;;;;;;;27.40;13.30;;;;;;;-7.70;65.58;97776.04;106880;1275;22564;-66
2023/02/09 08:05:06;;;;;;;11.60;6.50;;;;;;;-7.30;65.05;97774.14;106949;1275;24232;-66
2023/02/09 08:07:35;;;;;;;19.80;9.60;;;;;;;-6.90;63.51;97772.23;106868;1275;25452;-63
2023/02/09 08:10:03;;;;;;;11.00;5.80;;;;;;;-6.49;62.97;97769.27;106509;1275;22687;-65
2023/02/09 08:15:21;;;;;;;11.40;5.70;;;;;;;-5.87;59.42;97762.23;106576;1274;22640;-64
2023/02/09 08:17:53;;;;;;;19.40;9.00;;;;;;;-5.66;59.76;97762.65;106593;1275;24407;-63
2023/02/09 08:20:26;;;;;;;13.20;6.80;;;;;;;-5.43;58.96;97756.76;106568;1275;25477;-62
2023/02/09 08:23:00;;;;;;;15.00;7.40;;;;;;;-5.23;58.63;97756.70;106551;1275;25326;-62
2023/02/09 08:25:28;;;;;;;17.60;9.80;;;;;;;-5.03;57.69;97756.01;106596;1275;22820;-60
2023/02/09 08:27:56;;;;;;;14.80;6.80;;;;;;;-4.80;58.09;97755.31;106417;1275;24219;-65
2023/02/09 08:30:25;;;;;;;12.00;6.70;;;;;;;-4.49;57.82;97751.07;106810;1275;22599;-62
2023/02/09 08:32:53;;;;;;;14.80;7.00;;;;;;;-4.19;57.54;97746.25;106511;1274;22536;-63
2023/02/09 08:35:21;;;;;;;12.80;7.10;;;;;;;-3.96;55.83;97743.93;106526;1275;23888;-62
2023/02/09 08:37:49;;;;;;;13.00;6.70;;;;;;;-3.83;54.95;97738.15;106462;1275;24212;-62
2023/02/09 08:40:17;;;;;;;13.30;8.20;;;;;;;-3.60;56.49;97732.08;106509;1275;25356;-61
2023/02/09 08:42:45;;;;;;;11.60;6.50;;;;;;;-3.51;55.33;97736.31;106518;1275;23915;-64
2023/02/09 08:45:14;;;;;;;11.00;6.50;;;;;;;-3.45;54.47;97730.20;106803;1275;25400;-65
2023/02/09 08:47:42;;;;;;;11.20;6.60;;;;;;;-3.39;53.76;97729.23;106549;1275;22775;-65
2023/02/09 08:50:10;;;;;;;10.60;6.70;;;;;;;-3.24;53.16;97729.57;106525;1275;24252;-62
2023/02/09 08:52:38;;;;;;;10.60;6.90;;;;;;;-3.04;53.09;97726.77;106532;1275;22526;-61
2023/02/09 08:55:06;;;;;;;10.60;5.30;;;;;;;-2.79;51.75;97723.13;106516;1275;25413;-62
2023/02/09 08:57:34;;;;;;;8.10;5.10;;;;;;;-2.54;51.75;97716.53;106524;1275;24195;-62
2023/02/09 09:00:12;;;;;;;9.50;4.80;;;;;;;-2.31;50.70;97715.46;106724;1275;22514;-61
2023/02/09 09:02:40;;;;;;;13.20;8.60;;;;;;;-2.13;50.49;97714.66;106988;1275;24248;-62
2023/02/09 09:05:09;;;;;;;12.60;7.10;;;;;;;-2.07;49.41;97713.02;106927;1275;22543;-62
2023/02/09 09:07:37;;;;;;;15.40;8.90;;;;;;;-1.97;49.10;97708.86;107026;1275;25240;-62
2023/02/09 09:10:10;;;;;;;30.30;17.80;;;;;;;-1.85;48.85;97708.52;106947;1275;24344;-64
2023/02/09 09:12:38;;;;;;;23.30;14.00;;;;;;;-1.73;49.18;97716.20;106968;1275;22528;-63
2023/02/09 09:15:07;;;;;;;13.10;8.10;;;;;;;-1.59;49.25;97722.44;106768;1275;24215;-63
2023/02/09 09:17:35;;;;;;;12.60;6.80;;;;;;;-1.55;48.86;97721.27;106560;1275;22579;-63
2023/02/09 09:20:04;;;;;;;8.10;4.10;;;;;;;-1.36;48.52;97719.21;106747;1275;22522;-62
2023/02/09 09:22:32;;;;;;;14.50;8.90;;;;;;;-1.25;47.72;97723.80;106498;1275;22656;-62
2023/02/09 09:25:00;;;;;;;22.70;14.50;;;;;;;-1.07;48.63;97719.20;106585;1272;25384;-65
2023/02/09 09:27:28;;;;;;;10.70;5.90;;;;;;;-0.93;47.24;97716.44;106913;1274;24364;-62
2023/02/09 09:29:57;;;;;;;11.60;7.30;;;;;;;-0.86;46.18;97718.40;106682;1259;22672;-65
2023/02/09 09:32:26;;;;;;;10.00;5.20;;;;;;;-0.73;47.19;97715.16;106806;1274;24943;-65
2023/02/09 09:34:57;;;;;;;8.40;5.10;;;;;;;-0.54;47.07;97709.95;106713;1274;22534;-65
2023/02/09 09:37:25;;;;;;;11.00;6.90;;;;;;;-0.38;45.87;97709.60;106902;1274;25340;-65
2023/02/09 09:39:53;;;;;;;8.50;5.60;;;;;;;-0.30;45.34;97708.88;106891;1274;25307;-65
2023/02/09 09:42:33;;;;;;;3.60;2.30;;;;;;;-0.25;44.76;97705.19;106488;1269;23972;-64
2023/02/09 09:45:04;;;;;;;9.40;5.50;;;;;;;-0.20;44.57;97705.98;106406;1273;24318;-68
2023/02/09 09:47:38;;;;;;;6.80;4.30;;;;;;;-0.07;45.54;97702.56;106463;1270;25352;-66
2023/02/09 09:50:20;;;;;;;7.60;5.50;;;;;;;0.11;45.32;97701.70;106697;1275;22526;-65
2023/02/09 09:53:17;;;;;;;7.20;4.80;;;;;;;0.27;45.09;97701.55;106718;1275;22479;-61
2023/02/09 09:55:58;;;;;;;4.50;2.60;;;;;;;0.36;44.62;97699.95;106785;1275;22532;-65
2023/02/09 09:58:27;;;;;;;5.90;3.90;;;;;;;0.48;44.25;97701.46;106522;1271;22522;-65
2023/02/09 10:00:56;;;;;;;11.80;6.00;;;;;;;0.50;43.99;97695.49;106675;1267;22517;-63
2023/02/09 10:03:25;;;;;;;5.70;3.50;;;;;;;0.49;43.62;97691.65;106622;1275;22653;-66
2023/02/09 10:05:58;;;;;;;6.40;3.80;;;;;;;0.55;43.83;97684.34;106722;1275;25250;-64
2023/02/09 10:08:40;;;;;;;4.30;3.30;;;;;;;0.62;43.84;97677.80;106545;1275;23001;-64
2023/02/09 10:11:13;;;;;;;29.60;21.50;;;;;;;0.81;44.04;97672.04;106569;1275;25538;-65
2023/02/09 10:13:49;;;;;;;9.40;6.50;;;;;;;1.02;44.10;97667.20;106646;1274;22533;-64
2023/02/09 10:16:33;;;;;;;10.40;5.50;;;;;;;0.98;43.11;97664.23;106545;1275;22657;-64
2023/02/09 10:19:24;;;;;;;12.70;5.60;;;;;;;0.92;43.26;97665.69;106407;1275;26504;-65
2023/02/09 10:21:53;;;;;;;15.90;8.00;;;;;;;0.78;42.51;97667.70;106470;1275;25790;-66
2023/02/09 10:24:26;;;;;;;14.40;7.60;;;;;;;0.74;43.41;97661.27;106536;1275;24267;-65
2023/02/09 10:27:13;;;;;;;7.10;3.90;;;;;;;0.97;43.13;97656.40;106547;1275;22647;-64
2023/02/09 10:29:42;;;;;;;13.70;7.90;;;;;;;1.23;42.08;97649.21;106681;1275;22635;-65
2023/02/09 10:32:09;;;;;;;17.20;8.60;;;;;;;1.59;42.08;97641.63;106670;1266;22636;-65
2023/02/09 10:34:39;;;;;;;18.50;9.80;;;;;;;2.13;40.81;97642.33;106558;1275;23242;-66
2023/02/09 10:37:34;;;;;;;14.10;9.20;;;;;;;2.58;41.08;97632.95;106646;1275;25340;-65
2023/02/09 10:40:16;;;;;;;9.20;4.70;;;;;;;3.14;39.39;97635.73;106536;1273;24233;-65
2023/02/09 10:43:30;;;;;;;12.20;8.60;;;;;;;3.43;38.96;97632.46;106628;1273;23882;-67
2023/02/09 10:46:02;;;;;;;23.20;17.00;;;;;;;4.00;38.43;97625.01;106577;1271;22515;-65
2023/02/09 10:48:40;;;;;;;11.30;7.80;;;;;;;4.50;38.55;97618.39;106565;1269;24243;-65
2023/02/09 10:51:14;;;;;;;9.70;6.80;;;;;;;5.01;36.90;97610.67;106529;1269;22934;-65
2023/02/09 10:53:54;;;;;;;10.30;6.20;;;;;;;5.58;36.18;97607.20;106728;1271;22770;-66
2023/02/09 10:56:26;;;;;;;7.70;5.70;;;;;;;5.76;33.96;97604.83;106595;1276;22623;-67
2023/02/09 10:59:13;;;;;;;9.10;6.00;;;;;;;5.55;33.33;97602.20;106446;1276;22528;-68
2023/02/09 11:01:48;;;;;;;13.90;9.60;;;;;;;5.48;33.45;97602.50;106739;1276;24123;-65
2023/02/09 11:04:20;;;;;;;10.00;7.40;;;;;;;5.89;34.29;97596.17;106662;1276;25356;-65
2023/02/09 11:06:56;;;;;;;11.50;8.00;;;;;;;6.28;33.70;97591.09;106469;1276;22523;-64
2023/02/09 11:09:38;;;;;;;9.60;5.80;;;;;;;6.65;32.63;97586.77;106582;1276;24077;-65
2023/02/09 11:12:12;;;;;;;11.90;7.10;;;;;;;6.93;32.25;97586.84;106426;1276;22773;-65
2023/02/09 11:14:41;;;;;;;;;;;;;;;7.23;32.10;97585.92;106711;1275;23923;-65
2023/02/09 11:17:24;;;;;;;12.90;7.80;;;;;;;6.74;30.82;97587.19;106969;1275;22520;-65
2023/02/09 11:20:23;;;;;;;12.00;7.90;;;;;;;7.01;31.15;97582.19;106980;1275;22650;-65
2023/02/09 11:23:16;;;;;;;7.00;4.90;;;;;;;7.11;30.32;97582.79;106856;1275;22533;-65
2023/02/09 11:25:58;;;;;;;8.20;6.10;;;;;;;7.47;30.63;97579.52;106936;1275;24186;-65
2023/02/09 11:29:04;;;;;;;8.80;5.80;;;;;;;7.94;30.50;97573.30;106550;1275;22650;-65
2023/02/09 11:31:41;;;;;;;7.60;5.70;;;;;;;8.23;30.11;97572.23;106781;1275;22526;-66
2023/02/09 11:34:27;;;;;;;5.80;4.10;;;;;;;8.44;28.46;97574.30;106621;1275;22517;-66
2023/02/09 11:37:20;;;;;;;6.70;5.00;;;;;;;8.62;27.13;97565.72;106554;1275;22551;-66
2023/02/09 11:39:51;;;;;;;6.10;4.40;;;;;;;8.57;27.63;97565.45;106628;1275;22526;-66
2023/02/09 11:42:43;;;;;;;6.80;4.80;;;;;;;8.57;27.11;97564.05;106599;1275;25321;-66
2023/02/09 11:45:30;;;;;;;8.80;6.30;;;;;;;8.80;28.23;97561.52;106591;1275;24422;-66
2023/02/09 11:48:20;;;;;;;8.10;5.90;;;;;;;9.24;27.89;97558.84;106609;1275;22528;-67
2023/02/09 11:51:04;;;;;;;8.10;5.50;;;;;;;9.31;26.79;97558.09;106587;1275;25279;-67
2023/02/09 11:53:42;;;;;;;10.70;8.10;;;;;;;8.97;26.76;97557.80;106604;1275;24271;-66
2023/02/09 11:56:13;;;;;;;8.90;6.50;;;;;;;8.74;27.61;97551.05;106616;1275;22576;-67